createdAt,value
2023-03-30T00:00:55.891Z,10.75
2023-03-30T00:03:24.697Z,10.23
2023-03-30T00:05:52.877Z,10.45
2023-03-30T00:08:20.736Z,8.20
2023-03-30T00:10:49.520Z,13.57
2023-03-30T00:13:18.099Z,9.75
2023-03-30T00:15:46.064Z,14.25
2023-03-30T00:18:15.963Z,8.38
2023-03-30T00:20:45.144Z,8.38
2023-03-30T00:23:13.213Z,9.57
2023-03-30T00:25:41.256Z,13.63
2023-03-30T00:28:09.121Z,9.75
2023-03-30T00:30:37.336Z,8.25
2023-03-30T00:33:05.734Z,11.15
2023-03-30T00:35:35.603Z,10.00
2023-03-30T00:38:03.844Z,9.20
2023-03-30T00:40:33.517Z,8.55
2023-03-30T00:43:02.144Z,7.78
2023-03-30T00:45:30.985Z,9.88
2023-03-30T00:48:01.928Z,13.68
2023-03-30T00:50:35.694Z,9.88
2023-03-30T00:53:10.272Z,13.80
2023-03-30T00:55:40.071Z,8.80
2023-03-30T00:58:09.986Z,9.50
2023-03-30T01:00:39.569Z,5.90
2023-03-30T01:03:13.515Z,11.25
2023-03-30T01:05:42.607Z,12.73
2023-03-30T01:08:14.171Z,9.60
2023-03-30T01:10:42.513Z,8.80
2023-03-30T01:13:11.096Z,10.50
2023-03-30T01:15:42.784Z,6.55
2023-03-30T01:18:19.753Z,10.93
2023-03-30T01:21:16.259Z,8.25
2023-03-30T01:24:49.243Z,6.93
2023-03-30T01:27:31.975Z,6.68
2023-03-30T01:30:15.596Z,7.72
2023-03-30T01:33:14.878Z,6.60
2023-03-30T01:36:11.394Z,6.88
2023-03-30T01:39:03.617Z,10.73
2023-03-30T01:41:35.874Z,6.70
2023-03-30T01:44:09.814Z,8.13
2023-03-30T01:46:40.859Z,8.68
2023-03-30T01:49:15.357Z,7.63
2023-03-30T01:51:46.920Z,7.50
2023-03-30T01:54:20.497Z,7.75
2023-03-30T01:59:20.984Z,11.15
2023-03-30T02:01:54.314Z,8.57
2023-03-30T02:04:24.436Z,6.30
2023-03-30T02:06:55.712Z,15.35
2023-03-30T02:09:25.735Z,8.32
2023-03-30T02:11:55.450Z,7.80
2023-03-30T02:14:25.925Z,8.93
2023-03-30T02:16:58.067Z,14.75
2023-03-30T02:19:26.159Z,5.32
2023-03-30T02:21:54.741Z,7.57
2023-03-30T02:24:27.285Z,9.35
2023-03-30T02:26:55.505Z,6.60
2023-03-30T02:29:23.790Z,10.18
2023-03-30T02:31:55.262Z,7.90
2023-03-30T02:34:37.829Z,7.10
2023-03-30T02:37:22.479Z,8.57
2023-03-30T02:40:00.551Z,9.48
2023-03-30T02:42:37.861Z,7.90
2023-03-30T02:45:19.838Z,7.45
2023-03-30T02:47:57.595Z,5.72
2023-03-30T02:50:33.817Z,9.82
2023-03-30T02:53:12.279Z,7.63
2023-03-30T02:55:49.502Z,9.18
2023-03-30T02:58:28.267Z,7.18
2023-03-30T03:01:03.446Z,5.40
2023-03-30T03:03:47.245Z,5.35
2023-03-30T03:06:16.047Z,7.05
2023-03-30T03:08:49.755Z,5.95
2023-03-30T03:11:25.867Z,7.50
2023-03-30T03:13:55.705Z,9.55
2023-03-30T03:16:24.879Z,6.72
2023-03-30T03:19:25.747Z,7.88
2023-03-30T03:21:53.869Z,14.52
2023-03-30T03:24:21.743Z,18.27
2023-03-30T03:27:20.043Z,8.57
2023-03-30T03:30:13.923Z,6.22
2023-03-30T03:32:47.293Z,5.22
2023-03-30T03:35:15.539Z,10.02
2023-03-30T03:37:43.336Z,7.85
2023-03-30T03:40:12.497Z,6.43
2023-03-30T03:42:42.439Z,6.90
2023-03-30T03:45:13.197Z,5.93
2023-03-30T03:47:52.962Z,5.05
2023-03-30T03:50:28.472Z,5.60
2023-03-30T03:52:56.645Z,5.88
2023-03-30T03:55:24.996Z,6.72
2023-03-30T03:57:54.948Z,4.32
2023-03-30T04:00:23.350Z,7.00
2023-03-30T04:02:54.000Z,6.40
2023-03-30T04:05:21.922Z,9.13
2023-03-30T04:07:50.184Z,4.95
2023-03-30T04:10:18.363Z,6.90
2023-03-30T04:12:46.151Z,3.92
2023-03-30T04:15:27.427Z,5.47
2023-03-30T04:18:22.752Z,8.50
2023-03-30T04:21:07.447Z,7.57
2023-03-30T04:23:52.748Z,6.22
2023-03-30T04:26:20.644Z,6.88
2023-03-30T04:28:53.915Z,5.72
2023-03-30T04:31:47.145Z,10.65
2023-03-30T04:34:21.935Z,5.70
2023-03-30T04:37:05.124Z,7.47
2023-03-30T04:40:07.056Z,4.90
2023-03-30T04:42:50.199Z,4.30
2023-03-30T04:45:36.832Z,9.63
2023-03-30T04:48:06.356Z,3.88
2023-03-30T04:51:00.244Z,10.50
2023-03-30T04:53:33.955Z,9.07
2023-03-30T04:56:13.606Z,6.00
2023-03-30T04:58:44.531Z,4.57
2023-03-30T05:01:42.271Z,6.28
2023-03-30T05:04:24.387Z,6.80
2023-03-30T05:07:11.362Z,6.75
2023-03-30T05:09:57.966Z,5.28
2023-03-30T05:12:44.411Z,11.13
2023-03-30T05:15:35.823Z,6.72
2023-03-30T05:18:22.602Z,6.75
2023-03-30T05:21:18.413Z,5.68
2023-03-30T05:24:05.539Z,9.95
2023-03-30T05:26:36.130Z,5.45
2023-03-30T05:29:10.178Z,11.55
2023-03-30T05:32:13.442Z,9.05
2023-03-30T05:34:53.825Z,10.48
2023-03-30T05:37:34.912Z,13.68
2023-03-30T05:40:23.421Z,11.07
2023-03-30T05:43:06.824Z,11.15
2023-03-30T05:45:54.415Z,10.52
2023-03-30T05:48:54.478Z,11.60
2023-03-30T05:51:45.871Z,8.73
2023-03-30T05:54:38.367Z,11.70
2023-03-30T05:57:27.648Z,11.75
2023-03-30T06:00:09.872Z,9.13
2023-03-30T06:02:45.728Z,11.30
2023-03-30T06:05:17.419Z,12.38
2023-03-30T06:07:46.384Z,10.70
2023-03-30T06:10:16.201Z,13.45
2023-03-30T06:12:45.788Z,10.90
2023-03-30T06:15:28.215Z,14.77
2023-03-30T06:18:05.101Z,12.20
2023-03-30T06:20:36.115Z,18.40
2023-03-30T06:23:04.195Z,20.50
2023-03-30T06:25:33.749Z,15.32
2023-03-30T06:28:01.746Z,17.63
2023-03-30T06:30:30.401Z,11.40
2023-03-30T06:33:02.531Z,14.82
2023-03-30T06:35:46.201Z,14.77
2023-03-30T06:38:14.578Z,13.93
2023-03-30T06:40:44.088Z,14.90
2023-03-30T06:43:18.073Z,10.98
2023-03-30T06:45:55.486Z,11.68
2023-03-30T06:48:24.789Z,13.43
2023-03-30T06:51:14.052Z,20.33
2023-03-30T06:53:42.844Z,21.60
2023-03-30T06:56:12.905Z,11.57
2023-03-30T06:58:57.374Z,13.95
2023-03-30T07:01:25.333Z,12.27
2023-03-30T07:04:22.199Z,13.40
2023-03-30T07:07:10.317Z,21.42
2023-03-30T07:09:38.337Z,16.77
2023-03-30T07:12:08.631Z,19.58
2023-03-30T07:14:36.682Z,20.10
2023-03-30T07:17:04.683Z,16.05
2023-03-30T07:19:32.657Z,20.50
2023-03-30T07:22:00.528Z,17.73
2023-03-30T07:24:31.142Z,12.52
2023-03-30T07:26:59.688Z,19.27
2023-03-30T07:29:29.367Z,17.85
2023-03-30T07:31:58.410Z,18.23
2023-03-30T07:34:26.538Z,20.10
2023-03-30T07:36:58.647Z,17.98
2023-03-30T07:39:32.140Z,21.30
2023-03-30T07:42:01.660Z,17.65
2023-03-30T07:44:30.978Z,16.30
2023-03-30T07:47:04.225Z,16.73
2023-03-30T07:49:32.808Z,21.05
2023-03-30T07:52:01.458Z,18.83
2023-03-30T07:55:01.998Z,16.90
2023-03-30T07:57:46.868Z,19.33
2023-03-30T08:00:17.307Z,20.05
2023-03-30T08:03:04.709Z,24.15
2023-03-30T08:05:32.757Z,17.65
2023-03-30T08:08:09.390Z,18.88
2023-03-30T08:10:37.457Z,19.88
2023-03-30T08:13:05.497Z,25.70
2023-03-30T08:15:34.806Z,25.00
2023-03-30T08:18:06.849Z,16.45
2023-03-30T08:20:36.381Z,19.00
2023-03-30T08:23:04.264Z,18.58
2023-03-30T08:25:32.526Z,23.17
2023-03-30T08:28:00.438Z,25.08
2023-03-30T08:30:28.519Z,24.50
2023-03-30T08:32:58.444Z,20.52
2023-03-30T08:35:26.774Z,17.50
2023-03-30T08:37:55.758Z,19.52
2023-03-30T08:40:24.082Z,20.00
2023-03-30T08:43:13.807Z,23.98
2023-03-30T08:45:43.097Z,18.38
2023-03-30T08:48:18.464Z,22.13
2023-03-30T08:50:51.963Z,23.15
2023-03-30T08:53:20.231Z,20.10
2023-03-30T08:55:51.074Z,21.80
2023-03-30T08:58:27.153Z,18.58
2023-03-30T09:01:02.188Z,23.50
2023-03-30T09:03:36.413Z,19.88
2023-03-30T09:06:08.767Z,20.48
2023-03-30T09:08:37.291Z,21.33
2023-03-30T09:11:07.981Z,18.88
2023-03-30T09:13:38.102Z,16.50
2023-03-30T09:16:14.759Z,16.38
2023-03-30T09:18:45.015Z,20.17
2023-03-30T09:21:13.868Z,17.35
2023-03-30T09:23:42.043Z,13.88
2023-03-30T09:26:16.206Z,22.40
2023-03-30T09:31:16.104Z,23.17
2023-03-30T09:33:48.698Z,23.65
2023-03-30T09:36:17.778Z,21.00
2023-03-30T09:38:46.324Z,23.35
2023-03-30T09:41:24.284Z,28.50
2023-03-30T09:43:53.094Z,25.05
2023-03-30T09:46:21.229Z,24.80
2023-03-30T09:48:51.416Z,28.63
2023-03-30T09:51:22.358Z,28.20
2023-03-30T09:53:52.166Z,24.45
2023-03-30T09:56:28.593Z,27.70
2023-03-30T09:58:57.185Z,23.63
2023-03-30T10:01:38.648Z,28.52
2023-03-30T10:04:11.219Z,26.05
2023-03-30T10:06:41.115Z,28.33
2023-03-30T10:09:13.588Z,22.98
2023-03-30T10:11:43.554Z,22.98
2023-03-30T10:14:28.864Z,29.40
2023-03-30T10:16:57.364Z,28.17
2023-03-30T10:19:26.897Z,23.73
2023-03-30T10:21:55.882Z,31.17
2023-03-30T10:24:25.553Z,30.17
2023-03-30T10:26:55.450Z,33.05
2023-03-30T10:29:24.856Z,28.77
2023-03-30T10:31:57.961Z,24.92
2023-03-30T10:34:36.766Z,30.88
2023-03-30T10:37:07.608Z,28.25
2023-03-30T10:39:36.575Z,30.48
2023-03-30T10:42:06.164Z,26.83
2023-03-30T10:44:36.171Z,29.90
2023-03-30T10:47:18.138Z,29.77
2023-03-30T10:49:53.496Z,25.48
2023-03-30T10:52:25.435Z,37.05
2023-03-30T10:54:56.757Z,31.08
2023-03-30T10:57:30.836Z,25.30
2023-03-30T11:00:15.402Z,30.42
2023-03-30T11:02:50.078Z,30.85
2023-03-30T11:05:22.760Z,38.97
2023-03-30T11:07:54.930Z,30.13
2023-03-30T11:10:29.539Z,30.13
2023-03-30T11:13:00.974Z,26.67
2023-03-30T11:15:33.003Z,36.13
2023-03-30T11:18:06.030Z,29.45
2023-03-30T11:20:39.447Z,26.55
2023-03-30T11:23:14.074Z,24.60
2023-03-30T11:25:54.456Z,30.60
2023-03-30T11:28:30.228Z,29.63
2023-03-30T11:31:01.253Z,28.05
2023-03-30T11:33:34.213Z,29.08
2023-03-30T11:36:06.621Z,28.98
2023-03-30T11:38:42.626Z,28.55
2023-03-30T11:41:14.763Z,25.67
2023-03-30T11:43:42.816Z,26.38
2023-03-30T11:46:15.045Z,28.58
2023-03-30T11:48:59.937Z,31.40
2023-03-30T11:51:51.085Z,25.58
2023-03-30T11:54:56.123Z,32.28
2023-03-30T11:57:35.166Z,28.58
2023-03-30T12:00:18.755Z,28.00
2023-03-30T12:02:51.595Z,29.30
2023-03-30T12:05:23.159Z,28.05
2023-03-30T12:07:56.846Z,28.05
2023-03-30T12:10:28.090Z,21.95
2023-03-30T12:12:56.600Z,20.95
2023-03-30T12:15:35.246Z,26.17
2023-03-30T12:18:07.544Z,29.55
2023-03-30T12:20:41.279Z,23.63
2023-03-30T12:23:23.669Z,20.83
2023-03-30T12:26:10.123Z,28.63
2023-03-30T12:31:18.407Z,22.38
2023-03-30T12:33:48.321Z,25.98
2023-03-30T12:36:34.164Z,27.95
2023-03-30T12:39:05.759Z,43.65
2023-03-30T12:41:42.113Z,28.48
2023-03-30T12:44:26.057Z,31.85
2023-03-30T12:47:06.776Z,27.48
2023-03-30T12:49:44.923Z,28.65
2023-03-30T12:52:15.116Z,24.45
2023-03-30T12:55:03.245Z,25.90
2023-03-30T12:57:37.856Z,26.73
2023-03-30T13:00:41.212Z,25.40
2023-03-30T13:03:40.157Z,25.90
2023-03-30T13:06:11.990Z,23.55
2023-03-30T13:08:42.004Z,24.63
2023-03-30T13:11:16.563Z,30.63
2023-03-30T13:13:50.649Z,23.75
2023-03-30T13:16:50.065Z,27.02
2023-03-30T13:19:28.122Z,23.90
2023-03-30T13:21:58.992Z,21.67
2023-03-30T13:24:33.663Z,28.23
2023-03-30T13:27:23.103Z,32.22
2023-03-30T13:29:54.397Z,25.30
2023-03-30T13:32:37.251Z,26.25
2023-03-30T13:35:28.423Z,31.33
2023-03-30T13:38:30.244Z,28.40
2023-03-30T13:41:07.263Z,31.85
2023-03-30T13:43:44.990Z,30.83
2023-03-30T13:46:19.398Z,29.17
2023-03-30T13:48:58.165Z,32.05
2023-03-30T13:51:28.380Z,30.92
2023-03-30T13:53:57.795Z,31.38
2023-03-30T13:56:27.848Z,32.58
2023-03-30T13:59:01.367Z,32.25
2023-03-30T14:01:30.036Z,30.15
2023-03-30T14:03:58.702Z,24.02
2023-03-30T14:06:28.892Z,23.52
2023-03-30T14:09:09.511Z,26.33
2023-03-30T14:11:38.862Z,20.73
2023-03-30T14:14:08.665Z,23.20
2023-03-30T14:16:38.244Z,25.73
2023-03-30T14:19:13.352Z,24.45
2023-03-30T14:21:44.818Z,23.40
2023-03-30T14:24:15.293Z,26.33
2023-03-30T14:26:43.560Z,23.35
2023-03-30T14:29:24.639Z,13.90
2023-03-30T14:32:08.025Z,20.27
2023-03-30T14:34:38.237Z,22.95
2023-03-30T14:37:09.027Z,18.92
2023-03-30T14:39:41.323Z,17.88
2023-03-30T14:42:13.649Z,19.05
2023-03-30T14:44:43.000Z,23.75
2023-03-30T14:47:11.279Z,16.85
2023-03-30T14:49:40.155Z,29.23
2023-03-30T14:52:10.492Z,29.95
2023-03-30T14:54:43.132Z,23.15
2023-03-30T14:57:17.260Z,24.52
2023-03-30T14:59:48.736Z,16.42
2023-03-30T15:02:21.132Z,20.83
2023-03-30T15:04:49.699Z,16.13
2023-03-30T15:07:20.396Z,20.92
2023-03-30T15:09:49.568Z,16.55
2023-03-30T15:12:21.877Z,18.80
2023-03-30T15:14:51.908Z,22.77
2023-03-30T15:17:21.041Z,20.83
2023-03-30T15:19:51.236Z,21.08
2023-03-30T15:22:25.959Z,15.35
2023-03-30T15:24:55.412Z,15.48
2023-03-30T15:27:23.988Z,17.83
2023-03-30T15:29:53.292Z,16.88
2023-03-30T15:32:25.080Z,16.73
2023-03-30T15:35:07.040Z,18.77
2023-03-30T15:37:36.560Z,18.52
2023-03-30T15:40:06.388Z,15.40
2023-03-30T15:42:34.904Z,18.20
2023-03-30T15:45:06.008Z,22.25
2023-03-30T15:47:34.797Z,21.00
2023-03-30T15:50:02.751Z,16.70
2023-03-30T15:52:34.560Z,26.00
2023-03-30T15:58:52.478Z,19.42
2023-03-30T16:01:23.360Z,21.48
2023-03-30T16:03:55.755Z,20.23
2023-03-30T16:06:27.128Z,15.00
2023-03-30T16:09:03.065Z,14.95
2023-03-30T16:11:32.067Z,12.88
2023-03-30T16:14:01.368Z,12.75
2023-03-30T16:16:30.841Z,14.48
2023-03-30T16:18:58.742Z,17.52
2023-03-30T16:21:26.520Z,17.20
2023-03-30T16:23:54.814Z,14.82
2023-03-30T16:26:22.593Z,16.73
2023-03-30T16:28:52.188Z,15.70
2023-03-30T16:31:21.860Z,18.45
2023-03-30T16:33:51.896Z,17.35
2023-03-30T16:36:21.842Z,22.63
2023-03-30T16:38:50.043Z,17.55
2023-03-30T16:41:20.281Z,18.80
2023-03-30T16:43:48.133Z,18.65
2023-03-30T16:46:17.142Z,19.17
2023-03-30T16:48:45.208Z,21.95
2023-03-30T16:51:16.216Z,20.27
2023-03-30T16:53:44.212Z,16.35
2023-03-30T16:56:16.888Z,21.25
2023-03-30T16:58:44.862Z,19.15
2023-03-30T17:01:15.810Z,18.35
2023-03-30T17:03:43.795Z,24.17
2023-03-30T17:06:11.641Z,20.50
2023-03-30T17:08:43.073Z,19.52
2023-03-30T17:11:13.523Z,21.05
2023-03-30T17:13:41.704Z,15.77
2023-03-30T17:16:10.432Z,18.05
2023-03-30T17:18:38.211Z,16.27
2023-03-30T17:21:09.326Z,14.88
2023-03-30T17:23:37.978Z,17.48
2023-03-30T17:26:07.750Z,14.85
2023-03-30T17:28:38.443Z,23.50
2023-03-30T17:31:10.584Z,18.27
2023-03-30T17:33:39.311Z,18.60
2023-03-30T17:36:11.669Z,24.23
2023-03-30T17:38:41.652Z,20.77
2023-03-30T17:41:14.510Z,16.95
2023-03-30T17:43:43.614Z,18.25
2023-03-30T17:46:13.025Z,16.17
2023-03-30T17:48:41.134Z,19.55
2023-03-30T17:51:09.163Z,25.80
2023-03-30T17:53:37.167Z,21.38
2023-03-30T17:56:05.294Z,21.13
2023-03-30T17:58:35.972Z,28.23
2023-03-30T18:01:06.288Z,20.85
2023-03-30T18:03:34.881Z,22.42
2023-03-30T18:06:03.376Z,20.20
2023-03-30T18:08:31.478Z,25.08
2023-03-30T18:11:00.252Z,24.70
2023-03-30T18:13:29.668Z,24.65
2023-03-30T18:16:00.371Z,17.85
2023-03-30T18:18:29.878Z,26.90
2023-03-30T18:20:59.104Z,26.70
2023-03-30T18:23:27.107Z,20.48
2023-03-30T18:25:54.968Z,21.65
2023-03-30T18:28:24.959Z,21.77
2023-03-30T18:30:55.270Z,27.30
2023-03-30T18:33:24.984Z,27.45
2023-03-30T18:35:53.945Z,25.88
2023-03-30T18:38:22.918Z,20.33
2023-03-30T18:40:53.605Z,26.40
2023-03-30T18:43:21.610Z,26.38
2023-03-30T18:45:50.818Z,33.25
2023-03-30T18:48:21.192Z,27.65
2023-03-30T18:50:51.885Z,19.33
2023-03-30T18:53:21.526Z,30.98
2023-03-30T18:55:51.500Z,19.73
2023-03-30T18:58:21.788Z,28.55
2023-03-30T19:00:50.685Z,24.63
2023-03-30T19:03:19.179Z,29.13
2023-03-30T19:05:47.775Z,25.58
2023-03-30T19:08:18.450Z,17.17
2023-03-30T19:10:48.064Z,25.38
2023-03-30T19:13:17.170Z,23.73
2023-03-30T19:15:46.666Z,19.88
2023-03-30T19:18:15.360Z,26.55
2023-03-30T19:20:43.639Z,22.00
2023-03-30T19:23:13.217Z,21.48
2023-03-30T19:25:43.281Z,20.13
2023-03-30T19:28:12.124Z,16.38
2023-03-30T19:30:40.709Z,22.80
2023-03-30T19:33:10.028Z,22.38
2023-03-30T19:35:40.580Z,21.00
2023-03-30T19:38:09.003Z,19.13
2023-03-30T19:40:38.141Z,16.27
2023-03-30T19:43:07.563Z,23.70
2023-03-30T19:45:35.760Z,22.58
2023-03-30T19:48:04.106Z,21.20
2023-03-30T19:50:32.072Z,17.38
2023-03-30T19:52:59.941Z,25.00
2023-03-30T19:55:28.379Z,15.15
2023-03-30T19:57:56.273Z,17.95
2023-03-30T20:00:26.179Z,12.82
2023-03-30T20:02:56.483Z,22.60
2023-03-30T20:05:26.106Z,20.25
2023-03-30T20:07:54.043Z,17.63
2023-03-30T20:10:24.576Z,22.42
2023-03-30T20:12:53.204Z,19.77
2023-03-30T20:15:22.579Z,23.48
2023-03-30T20:17:56.646Z,14.02
2023-03-30T20:23:02.373Z,17.33
2023-03-30T20:25:46.494Z,16.55
2023-03-30T20:28:17.802Z,16.17
2023-03-30T20:30:56.810Z,16.67
2023-03-30T20:33:27.187Z,19.85
2023-03-30T20:35:56.571Z,20.20
2023-03-30T20:38:24.438Z,20.63
2023-03-30T20:40:56.796Z,15.90
2023-03-30T20:43:26.752Z,16.27
2023-03-30T20:46:02.323Z,15.07
2023-03-30T20:48:33.841Z,19.60
2023-03-30T20:51:03.824Z,18.83
2023-03-30T20:53:32.411Z,19.35
2023-03-30T20:56:00.619Z,16.85
2023-03-30T20:58:29.361Z,19.67
2023-03-30T21:00:59.072Z,23.60
2023-03-30T21:03:29.191Z,19.95
2023-03-30T21:06:03.346Z,15.35
2023-03-30T21:08:32.830Z,19.73
2023-03-30T21:11:00.708Z,21.52
2023-03-30T21:13:28.834Z,15.98
2023-03-30T21:15:58.025Z,23.63
2023-03-30T21:18:26.611Z,16.95
2023-03-30T21:20:55.296Z,20.42
2023-03-30T21:23:25.475Z,22.60
2023-03-30T21:25:55.756Z,17.55
2023-03-30T21:28:23.606Z,20.15
2023-03-30T21:30:51.681Z,25.45
2023-03-30T21:33:19.480Z,19.00
2023-03-30T21:35:50.122Z,21.48
2023-03-30T21:38:18.239Z,21.05
2023-03-30T21:40:57.868Z,20.67
2023-03-30T21:43:26.660Z,17.15
2023-03-30T21:45:55.742Z,26.08
2023-03-30T21:48:24.321Z,18.88
2023-03-30T21:50:52.121Z,17.08
2023-03-30T21:53:20.028Z,21.95
2023-03-30T21:55:48.658Z,29.13
2023-03-30T21:58:17.965Z,14.98
2023-03-30T22:00:46.679Z,22.45
2023-03-30T22:03:15.165Z,24.48
2023-03-30T22:05:44.092Z,16.17
2023-03-30T22:08:13.616Z,23.80
2023-03-30T22:10:42.193Z,28.88
2023-03-30T22:13:10.832Z,22.75
2023-03-30T22:15:40.281Z,24.90
2023-03-30T22:18:08.347Z,19.75
2023-03-30T22:20:39.979Z,23.92
2023-03-30T22:23:07.886Z,21.38
2023-03-30T22:25:35.684Z,23.48
2023-03-30T22:28:03.585Z,19.60
2023-03-30T22:30:31.475Z,25.50
2023-03-30T22:33:01.125Z,15.02
2023-03-30T22:35:29.786Z,19.92
2023-03-30T22:37:57.671Z,25.65
2023-03-30T22:40:25.561Z,16.52
2023-03-30T22:42:53.497Z,23.35
2023-03-30T22:45:21.280Z,16.98
2023-03-30T22:47:49.250Z,20.33
2023-03-30T22:50:18.765Z,18.88
2023-03-30T22:52:46.608Z,21.85
2023-03-30T22:55:14.504Z,22.05
2023-03-30T22:57:42.484Z,13.95
2023-03-30T23:00:12.057Z,21.00
2023-03-30T23:02:40.638Z,15.52
2023-03-30T23:05:10.046Z,21.20
2023-03-30T23:07:39.251Z,12.77
2023-03-30T23:10:09.349Z,13.30
2023-03-30T23:12:37.268Z,18.48
2023-03-30T23:15:05.938Z,19.40
2023-03-30T23:17:33.877Z,15.95
2023-03-30T23:20:01.864Z,16.58
2023-03-30T23:22:29.670Z,20.35
2023-03-30T23:24:58.998Z,11.40
2023-03-30T23:27:26.920Z,17.33
2023-03-30T23:29:54.767Z,16.58
2023-03-30T23:32:22.870Z,15.75
2023-03-30T23:57:20.032Z,10.57
2023-03-30T23:59:48.123Z,15.43
